sensor_id;sensor_type;location;lat;lon;timestamp;temperature;humidity
5023;DHT22;2530;47.990;7.866;2023-01-10T00:02:17;5.90;99.90
5023;DHT22;2530;47.990;7.866;2023-01-10T00:04:42;5.90;99.90
5023;DHT22;2530;47.990;7.866;2023-01-10T00:07:08;5.90;99.90
5023;DHT22;2530;47.990;7.866;2023-01-10T00:09:33;5.90;99.90
5023;DHT22;2530;47.990;7.866;2023-01-10T00:11:59;5.90;99.90
5023;DHT22;2530;47.990;7.866;2023-01-10T00:14:43;5.90;99.90
5023;DHT22;2530;47.990;7.866;2023-01-10T00:17:08;6.00;99.90
5023;DHT22;2530;47.990;7.866;2023-01-10T00:19:34;5.90;99.90
5023;DHT22;2530;47.990;7.866;2023-01-10T00:21:59;5.90;99.90
5023;DHT22;2530;47.990;7.866;2023-01-10T00:24:32;5.90;99.90
5023;DHT22;2530;47.990;7.866;2023-01-10T00:26:58;5.90;99.90
5023;DHT22;2530;47.990;7.866;2023-01-10T00:29:28;6.00;99.90
5023;DHT22;2530;47.990;7.866;2023-01-10T00:31:55;5.90;99.90
5023;DHT22;2530;47.990;7.866;2023-01-10T00:34:21;5.90;99.90
5023;DHT22;2530;47.990;7.866;2023-01-10T00:36:47;5.90;99.90
5023;DHT22;2530;47.990;7.866;2023-01-10T00:39:14;5.90;99.90
5023;DHT22;2530;47.990;7.866;2023-01-10T00:41:40;5.80;99.90
5023;DHT22;2530;47.990;7.866;2023-01-10T00:44:24;5.80;99.90
5023;DHT22;2530;47.990;7.866;2023-01-10T00:46:51;5.70;99.90
5023;DHT22;2530;47.990;7.866;2023-01-10T00:49:16;5.60;99.90
5023;DHT22;2530;47.990;7.866;2023-01-10T00:51:42;5.60;99.90
5023;DHT22;2530;47.990;7.866;2023-01-10T00:54:09;5.60;99.90
5023;DHT22;2530;47.990;7.866;2023-01-10T00:56:35;5.60;99.90
5023;DHT22;2530;47.990;7.866;2023-01-10T00:59:00;5.50;99.90
5023;DHT22;2530;47.990;7.866;2023-01-10T01:01:26;5.60;99.90
5023;DHT22;2530;47.990;7.866;2023-01-10T01:03:51;5.60;99.90
5023;DHT22;2530;47.990;7.866;2023-01-10T01:06:17;5.50;99.90
5023;DHT22;2530;47.990;7.866;2023-01-10T01:08:43;5.50;99.90
5023;DHT22;2530;47.990;7.866;2023-01-10T01:11:08;5.60;99.90
5023;DHT22;2530;47.990;7.866;2023-01-10T01:13:34;5.50;99.90
5023;DHT22;2530;47.990;7.866;2023-01-10T01:16:00;5.60;99.90
5023;DHT22;2530;47.990;7.866;2023-01-10T01:18:26;5.60;99.90
5023;DHT22;2530;47.990;7.866;2023-01-10T01:20:53;5.60;99.90
5023;DHT22;2530;47.990;7.866;2023-01-10T01:23:20;5.60;99.90
5023;DHT22;2530;47.990;7.866;2023-01-10T01:25:49;5.60;99.90
5023;DHT22;2530;47.990;7.866;2023-01-10T01:28:15;5.60;99.90
5023;DHT22;2530;47.990;7.866;2023-01-10T01:30:40;5.60;99.90
5023;DHT22;2530;47.990;7.866;2023-01-10T01:33:06;5.60;99.90
5023;DHT22;2530;47.990;7.866;2023-01-10T01:35:32;5.60;99.90
5023;DHT22;2530;47.990;7.866;2023-01-10T01:37:58;5.70;99.90
5023;DHT22;2530;47.990;7.866;2023-01-10T01:40:23;5.70;99.90
5023;DHT22;2530;47.990;7.866;2023-01-10T01:42:49;5.70;99.90
5023;DHT22;2530;47.990;7.866;2023-01-10T01:47:58;5.70;99.90
5023;DHT22;2530;47.990;7.866;2023-01-10T01:50:37;5.80;99.90
5023;DHT22;2530;47.990;7.866;2023-01-10T01:53:10;5.70;99.90
5023;DHT22;2530;47.990;7.866;2023-01-10T01:55:38;5.80;99.90
5023;DHT22;2530;47.990;7.866;2023-01-10T01:58:06;5.80;99.90
5023;DHT22;2530;47.990;7.866;2023-01-10T02:00:34;5.80;99.90
5023;DHT22;2530;47.990;7.866;2023-01-10T02:03:00;5.90;99.90
5023;DHT22;2530;47.990;7.866;2023-01-10T02:05:26;5.80;99.90
5023;DHT22;2530;47.990;7.866;2023-01-10T02:07:54;5.80;99.90
5023;DHT22;2530;47.990;7.866;2023-01-10T02:13:10;5.80;99.90
5023;DHT22;2530;47.990;7.866;2023-01-10T02:15:38;5.80;99.90
5023;DHT22;2530;47.990;7.866;2023-01-10T02:18:04;5.80;99.90
5023;DHT22;2530;47.990;7.866;2023-01-10T02:20:37;5.70;99.90
5023;DHT22;2530;47.990;7.866;2023-01-10T02:37:42;5.80;99.90
5023;DHT22;2530;47.990;7.866;2023-01-10T02:40:20;5.80;99.90
5023;DHT22;2530;47.990;7.866;2023-01-10T02:43:09;5.70;99.90
5023;DHT22;2530;47.990;7.866;2023-01-10T02:46:07;5.80;99.90
5023;DHT22;2530;47.990;7.866;2023-01-10T02:48:35;5.80;99.90
5023;DHT22;2530;47.990;7.866;2023-01-10T02:51:21;5.80;99.90
5023;DHT22;2530;47.990;7.866;2023-01-10T02:54:01;5.70;99.90
5023;DHT22;2530;47.990;7.866;2023-01-10T02:56:49;5.50;99.90
5023;DHT22;2530;47.990;7.866;2023-01-10T03:07:38;5.40;99.90
5023;DHT22;2530;47.990;7.866;2023-01-10T03:10:17;5.40;99.90
5023;DHT22;2530;47.990;7.866;2023-01-10T03:15:36;5.20;99.90
5023;DHT22;2530;47.990;7.866;2023-01-10T03:18:06;5.30;99.90
5023;DHT22;2530;47.990;7.866;2023-01-10T03:20:34;5.30;99.90
5023;DHT22;2530;47.990;7.866;2023-01-10T03:23:04;5.30;99.90
5023;DHT22;2530;47.990;7.866;2023-01-10T03:25:32;5.30;99.90
5023;DHT22;2530;47.990;7.866;2023-01-10T03:28:10;5.30;99.90
5023;DHT22;2530;47.990;7.866;2023-01-10T03:30:47;5.30;99.90
5023;DHT22;2530;47.990;7.866;2023-01-10T03:33:16;5.30;99.90
5023;DHT22;2530;47.990;7.866;2023-01-10T03:38:49;5.40;99.90
5023;DHT22;2530;47.990;7.866;2023-01-10T03:49:43;5.30;99.90
5023;DHT22;2530;47.990;7.866;2023-01-10T03:52:14;5.20;99.90
5023;DHT22;2530;47.990;7.866;2023-01-10T03:54:44;5.20;99.90
5023;DHT22;2530;47.990;7.866;2023-01-10T03:57:21;5.20;99.90
5023;DHT22;2530;47.990;7.866;2023-01-10T03:59:51;5.20;99.90
5023;DHT22;2530;47.990;7.866;2023-01-10T04:02:17;5.20;99.90
5023;DHT22;2530;47.990;7.866;2023-01-10T04:04:42;5.20;99.90
5023;DHT22;2530;47.990;7.866;2023-01-10T04:07:08;5.20;99.90
5023;DHT22;2530;47.990;7.866;2023-01-10T04:09:34;5.20;99.90
5023;DHT22;2530;47.990;7.866;2023-01-10T04:11:59;5.20;99.90
5023;DHT22;2530;47.990;7.866;2023-01-10T04:14:25;5.10;99.90
5023;DHT22;2530;47.990;7.866;2023-01-10T04:16:51;5.20;99.90
5023;DHT22;2530;47.990;7.866;2023-01-10T04:19:17;5.10;99.90
5023;DHT22;2530;47.990;7.866;2023-01-10T04:21:42;5.20;99.90
5023;DHT22;2530;47.990;7.866;2023-01-10T04:24:08;5.20;99.90
5023;DHT22;2530;47.990;7.866;2023-01-10T04:26:34;5.10;99.90
5023;DHT22;2530;47.990;7.866;2023-01-10T04:28:59;5.20;99.90
5023;DHT22;2530;47.990;7.866;2023-01-10T04:31:25;5.20;99.90
5023;DHT22;2530;47.990;7.866;2023-01-10T04:33:51;5.20;99.90
5023;DHT22;2530;47.990;7.866;2023-01-10T04:36:17;5.30;99.90
5023;DHT22;2530;47.990;7.866;2023-01-10T04:38:42;5.20;99.90
5023;DHT22;2530;47.990;7.866;2023-01-10T04:41:08;5.30;99.90
5023;DHT22;2530;47.990;7.866;2023-01-10T04:43:34;5.20;99.90
5023;DHT22;2530;47.990;7.866;2023-01-10T04:45:59;5.20;99.90
5023;DHT22;2530;47.990;7.866;2023-01-10T04:48:25;5.20;99.90
5023;DHT22;2530;47.990;7.866;2023-01-10T04:50:52;5.20;99.90
5023;DHT22;2530;47.990;7.866;2023-01-10T04:53:18;5.20;99.90
5023;DHT22;2530;47.990;7.866;2023-01-10T04:55:44;5.20;99.90
5023;DHT22;2530;47.990;7.866;2023-01-10T04:58:10;5.20;99.90
5023;DHT22;2530;47.990;7.866;2023-01-10T05:00:36;5.30;99.90
5023;DHT22;2530;47.990;7.866;2023-01-10T05:03:02;5.20;99.90
5023;DHT22;2530;47.990;7.866;2023-01-10T05:05:28;5.20;99.90
5023;DHT22;2530;47.990;7.866;2023-01-10T05:07:53;5.30;99.90
5023;DHT22;2530;47.990;7.866;2023-01-10T05:10:19;5.20;99.90
5023;DHT22;2530;47.990;7.866;2023-01-10T05:12:45;5.30;99.90
5023;DHT22;2530;47.990;7.866;2023-01-10T05:15:11;5.30;99.90
5023;DHT22;2530;47.990;7.866;2023-01-10T05:17:36;5.30;99.90
5023;DHT22;2530;47.990;7.866;2023-01-10T05:20:02;5.20;99.90
5023;DHT22;2530;47.990;7.866;2023-01-10T05:22:28;5.30;99.90
5023;DHT22;2530;47.990;7.866;2023-01-10T05:24:53;5.30;99.90
5023;DHT22;2530;47.990;7.866;2023-01-10T05:27:19;5.20;99.90
5023;DHT22;2530;47.990;7.866;2023-01-10T05:29:44;5.30;99.90
5023;DHT22;2530;47.990;7.866;2023-01-10T05:32:10;5.20;99.90
5023;DHT22;2530;47.990;7.866;2023-01-10T05:34:35;5.20;99.90
5023;DHT22;2530;47.990;7.866;2023-01-10T05:37:01;5.30;99.90
5023;DHT22;2530;47.990;7.866;2023-01-10T05:39:26;5.30;99.90
5023;DHT22;2530;47.990;7.866;2023-01-10T05:41:52;5.30;99.90
5023;DHT22;2530;47.990;7.866;2023-01-10T05:44:17;5.30;99.90
5023;DHT22;2530;47.990;7.866;2023-01-10T05:46:43;5.40;99.90
5023;DHT22;2530;47.990;7.866;2023-01-10T05:49:08;5.40;99.90
5023;DHT22;2530;47.990;7.866;2023-01-10T05:51:34;5.40;99.90
5023;DHT22;2530;47.990;7.866;2023-01-10T05:54:00;5.40;99.90
5023;DHT22;2530;47.990;7.866;2023-01-10T05:56:25;5.40;99.90
5023;DHT22;2530;47.990;7.866;2023-01-10T05:58:51;5.50;99.90
5023;DHT22;2530;47.990;7.866;2023-01-10T06:01:17;5.50;99.90
5023;DHT22;2530;47.990;7.866;2023-01-10T06:03:43;5.40;99.90
5023;DHT22;2530;47.990;7.866;2023-01-10T06:06:08;5.40;99.90
5023;DHT22;2530;47.990;7.866;2023-01-10T06:08:34;5.40;99.90
5023;DHT22;2530;47.990;7.866;2023-01-10T06:11:04;5.20;99.90
5023;DHT22;2530;47.990;7.866;2023-01-10T06:13:30;5.10;99.90
5023;DHT22;2530;47.990;7.866;2023-01-10T06:15:56;5.10;99.90
5023;DHT22;2530;47.990;7.866;2023-01-10T06:18:21;5.10;99.90
5023;DHT22;2530;47.990;7.866;2023-01-10T06:20:47;5.10;99.90
5023;DHT22;2530;47.990;7.866;2023-01-10T06:23:12;5.20;99.90
5023;DHT22;2530;47.990;7.866;2023-01-10T06:25:38;5.10;99.90
5023;DHT22;2530;47.990;7.866;2023-01-10T06:28:07;5.20;99.90
5023;DHT22;2530;47.990;7.866;2023-01-10T06:30:32;5.20;99.90
5023;DHT22;2530;47.990;7.866;2023-01-10T06:33:00;5.30;99.90
5023;DHT22;2530;47.990;7.866;2023-01-10T06:35:27;5.30;99.90
5023;DHT22;2530;47.990;7.866;2023-01-10T06:37:52;5.40;99.90
5023;DHT22;2530;47.990;7.866;2023-01-10T06:40:18;5.40;99.90
5023;DHT22;2530;47.990;7.866;2023-01-10T06:42:43;5.40;99.90
5023;DHT22;2530;47.990;7.866;2023-01-10T06:45:09;5.40;99.90
5023;DHT22;2530;47.990;7.866;2023-01-10T06:47:35;5.40;99.90
5023;DHT22;2530;47.990;7.866;2023-01-10T06:50:02;5.30;99.90
5023;DHT22;2530;47.990;7.866;2023-01-10T06:52:27;5.30;99.90
5023;DHT22;2530;47.990;7.866;2023-01-10T06:54:53;5.30;99.90
5023;DHT22;2530;47.990;7.866;2023-01-10T06:57:18;5.40;99.90
5023;DHT22;2530;47.990;7.866;2023-01-10T06:59:44;5.40;99.90
5023;DHT22;2530;47.990;7.866;2023-01-10T07:02:10;5.30;99.90
5023;DHT22;2530;47.990;7.866;2023-01-10T07:04:36;5.40;99.90
5023;DHT22;2530;47.990;7.866;2023-01-10T07:07:02;5.40;99.90
5023;DHT22;2530;47.990;7.866;2023-01-10T07:09:27;5.30;99.90
5023;DHT22;2530;47.990;7.866;2023-01-10T07:11:54;5.30;99.90
5023;DHT22;2530;47.990;7.866;2023-01-10T07:14:19;5.30;99.90
5023;DHT22;2530;47.990;7.866;2023-01-10T07:16:45;5.30;99.90
5023;DHT22;2530;47.990;7.866;2023-01-10T07:19:10;5.40;99.90
5023;DHT22;2530;47.990;7.866;2023-01-10T07:21:38;5.30;99.90
5023;DHT22;2530;47.990;7.866;2023-01-10T07:24:04;5.40;99.90
5023;DHT22;2530;47.990;7.866;2023-01-10T07:26:29;5.40;97.40
5023;DHT22;2530;47.990;7.866;2023-01-10T07:28:55;5.40;67.90
5023;DHT22;2530;47.990;7.866;2023-01-10T07:31:21;5.30;55.70
5023;DHT22;2530;47.990;7.866;2023-01-10T07:33:49;5.40;91.70
5023;DHT22;2530;47.990;7.866;2023-01-10T07:36:15;5.40;99.90
5023;DHT22;2530;47.990;7.866;2023-01-10T07:38:41;5.40;31.90
5023;DHT22;2530;47.990;7.866;2023-01-10T07:41:06;5.40;22.50
5023;DHT22;2530;47.990;7.866;2023-01-10T07:43:32;5.40;1.00
5023;DHT22;2530;47.990;7.866;2023-01-10T07:46:03;5.50;1.20
5023;DHT22;2530;47.990;7.866;2023-01-10T07:48:29;5.60;1.00
5023;DHT22;2530;47.990;7.866;2023-01-10T07:50:58;5.60;1.00
5023;DHT22;2530;47.990;7.866;2023-01-10T07:53:25;5.60;1.00
5023;DHT22;2530;47.990;7.866;2023-01-10T07:55:51;5.60;1.00
5023;DHT22;2530;47.990;7.866;2023-01-10T07:58:17;5.70;1.00
5023;DHT22;2530;47.990;7.866;2023-01-10T08:00:43;5.60;1.00
5023;DHT22;2530;47.990;7.866;2023-01-10T08:03:10;5.50;1.00
5023;DHT22;2530;47.990;7.866;2023-01-10T08:05:36;5.50;1.00
5023;DHT22;2530;47.990;7.866;2023-01-10T08:08:04;5.50;15.00
5023;DHT22;2530;47.990;7.866;2023-01-10T08:10:30;5.40;11.30
5023;DHT22;2530;47.990;7.866;2023-01-10T08:12:55;5.30;90.70
5023;DHT22;2530;47.990;7.866;2023-01-10T08:15:21;5.30;1.00
5023;DHT22;2530;47.990;7.866;2023-01-10T08:17:46;5.40;1.00
5023;DHT22;2530;47.990;7.866;2023-01-10T08:20:12;5.30;1.00
5023;DHT22;2530;47.990;7.866;2023-01-10T08:22:38;5.40;1.00
5023;DHT22;2530;47.990;7.866;2023-01-10T08:25:03;5.40;1.00
5023;DHT22;2530;47.990;7.866;2023-01-10T08:27:29;5.50;1.00
5023;DHT22;2530;47.990;7.866;2023-01-10T08:29:54;5.50;1.00
5023;DHT22;2530;47.990;7.866;2023-01-10T08:32:20;5.50;1.00
5023;DHT22;2530;47.990;7.866;2023-01-10T08:34:46;5.50;1.00
5023;DHT22;2530;47.990;7.866;2023-01-10T08:37:12;5.60;1.00
5023;DHT22;2530;47.990;7.866;2023-01-10T08:39:38;5.60;1.00
5023;DHT22;2530;47.990;7.866;2023-01-10T08:42:04;5.60;1.00
5023;DHT22;2530;47.990;7.866;2023-01-10T08:44:29;5.50;1.00
5023;DHT22;2530;47.990;7.866;2023-01-10T08:46:55;5.50;1.00
5023;DHT22;2530;47.990;7.866;2023-01-10T08:49:21;5.50;1.00
5023;DHT22;2530;47.990;7.866;2023-01-10T08:51:46;5.50;1.00
5023;DHT22;2530;47.990;7.866;2023-01-10T08:54:12;5.60;1.00
5023;DHT22;2530;47.990;7.866;2023-01-10T08:56:38;5.60;1.00
5023;DHT22;2530;47.990;7.866;2023-01-10T08:59:05;5.70;1.00
5023;DHT22;2530;47.990;7.866;2023-01-10T09:01:30;5.70;1.00
5023;DHT22;2530;47.990;7.866;2023-01-10T09:03:56;5.80;1.00
5023;DHT22;2530;47.990;7.866;2023-01-10T09:06:21;5.90;1.00
5023;DHT22;2530;47.990;7.866;2023-01-10T09:08:48;6.10;1.00
5023;DHT22;2530;47.990;7.866;2023-01-10T09:11:14;6.30;1.00
5023;DHT22;2530;47.990;7.866;2023-01-10T09:13:40;6.30;1.00
5023;DHT22;2530;47.990;7.866;2023-01-10T09:16:06;6.40;1.00
5023;DHT22;2530;47.990;7.866;2023-01-10T09:18:32;6.30;1.00
5023;DHT22;2530;47.990;7.866;2023-01-10T09:20:58;6.30;1.00
5023;DHT22;2530;47.990;7.866;2023-01-10T09:23:24;6.30;1.00
5023;DHT22;2530;47.990;7.866;2023-01-10T09:25:52;6.40;1.00
5023;DHT22;2530;47.990;7.866;2023-01-10T09:28:19;6.40;1.00
5023;DHT22;2530;47.990;7.866;2023-01-10T09:30:45;6.60;1.00
5023;DHT22;2530;47.990;7.866;2023-01-10T09:33:11;6.50;1.00
5023;DHT22;2530;47.990;7.866;2023-01-10T09:35:39;6.40;1.00
5023;DHT22;2530;47.990;7.866;2023-01-10T09:38:06;6.50;1.00
5023;DHT22;2530;47.990;7.866;2023-01-10T09:49:13;6.00;1.00
5023;DHT22;2530;47.990;7.866;2023-01-10T09:51:45;6.00;1.00
5023;DHT22;2530;47.990;7.866;2023-01-10T09:54:30;6.00;1.00
5023;DHT22;2530;47.990;7.866;2023-01-10T09:56:58;6.00;1.00
5023;DHT22;2530;47.990;7.866;2023-01-10T09:59:45;6.00;1.00
5023;DHT22;2530;47.990;7.866;2023-01-10T10:02:16;6.00;1.00
5023;DHT22;2530;47.990;7.866;2023-01-10T10:04:55;5.90;1.00
5023;DHT22;2530;47.990;7.866;2023-01-10T10:07:23;6.00;1.00
5023;DHT22;2530;47.990;7.866;2023-01-10T10:09:48;6.00;1.00
5023;DHT22;2530;47.990;7.866;2023-01-10T10:15:28;6.10;1.00
5023;DHT22;2530;47.990;7.866;2023-01-10T10:17:56;6.10;1.00
5023;DHT22;2530;47.990;7.866;2023-01-10T10:23:27;6.20;1.00
5023;DHT22;2530;47.990;7.866;2023-01-10T10:26:06;6.10;1.00
5023;DHT22;2530;47.990;7.866;2023-01-10T10:31:34;6.20;1.00
5023;DHT22;2530;47.990;7.866;2023-01-10T10:37:03;6.30;1.00
5023;DHT22;2530;47.990;7.866;2023-01-10T10:39:42;6.20;1.00
5023;DHT22;2530;47.990;7.866;2023-01-10T10:42:12;6.20;1.00
5023;DHT22;2530;47.990;7.866;2023-01-10T10:45:02;6.20;1.00
5023;DHT22;2530;47.990;7.866;2023-01-10T10:47:32;6.20;1.00
5023;DHT22;2530;47.990;7.866;2023-01-10T10:50:31;6.20;1.00
5023;DHT22;2530;47.990;7.866;2023-01-10T10:52:59;6.50;1.00
5023;DHT22;2530;47.990;7.866;2023-01-10T10:55:32;6.60;1.00
5023;DHT22;2530;47.990;7.866;2023-01-10T10:58:00;6.60;1.00
5023;DHT22;2530;47.990;7.866;2023-01-10T11:00:27;6.60;1.00
5023;DHT22;2530;47.990;7.866;2023-01-10T11:05:59;7.00;1.00
5023;DHT22;2530;47.990;7.866;2023-01-10T11:08:27;6.80;1.00
5023;DHT22;2530;47.990;7.866;2023-01-10T11:10:56;6.80;1.00
5023;DHT22;2530;47.990;7.866;2023-01-10T11:15:57;7.10;1.00
5023;DHT22;2530;47.990;7.866;2023-01-10T11:18:29;7.30;99.90
5023;DHT22;2530;47.990;7.866;2023-01-10T11:21:00;7.30;99.90
5023;DHT22;2530;47.990;7.866;2023-01-10T11:26:01;7.30;1.00
5023;DHT22;2530;47.990;7.866;2023-01-10T11:28:29;7.50;99.90
5023;DHT22;2530;47.990;7.866;2023-01-10T11:30:56;7.80;1.00
5023;DHT22;2530;47.990;7.866;2023-01-10T11:33:30;7.90;1.00
5023;DHT22;2530;47.990;7.866;2023-01-10T11:36:08;8.20;1.00
5023;DHT22;2530;47.990;7.866;2023-01-10T11:38:34;8.40;1.00
5023;DHT22;2530;47.990;7.866;2023-01-10T11:41:21;8.40;99.90
5023;DHT22;2530;47.990;7.866;2023-01-10T11:43:47;8.60;26.10
5023;DHT22;2530;47.990;7.866;2023-01-10T11:46:18;8.90;1.00
5023;DHT22;2530;47.990;7.866;2023-01-10T11:49:04;8.90;1.00
5023;DHT22;2530;47.990;7.866;2023-01-10T11:51:36;8.80;99.90
5023;DHT22;2530;47.990;7.866;2023-01-10T11:54:06;8.40;99.90
5023;DHT22;2530;47.990;7.866;2023-01-10T11:56:35;7.90;1.00
5023;DHT22;2530;47.990;7.866;2023-01-10T11:59:16;7.70;1.00
5023;DHT22;2530;47.990;7.866;2023-01-10T12:01:47;7.70;26.50
5023;DHT22;2530;47.990;7.866;2023-01-10T12:04:19;8.10;1.00
5023;DHT22;2530;47.990;7.866;2023-01-10T12:06:55;8.30;1.00
5023;DHT22;2530;47.990;7.866;2023-01-10T12:12:25;8.40;1.00
5023;DHT22;2530;47.990;7.866;2023-01-10T12:14:51;8.20;99.90
5023;DHT22;2530;47.990;7.866;2023-01-10T12:17:31;8.50;99.90
5023;DHT22;2530;47.990;7.866;2023-01-10T12:20:00;9.70;99.90
5023;DHT22;2530;47.990;7.866;2023-01-10T12:22:34;10.10;1.00
5023;DHT22;2530;47.990;7.866;2023-01-10T12:25:05;10.10;1.00
5023;DHT22;2530;47.990;7.866;2023-01-10T12:27:33;10.40;1.00
5023;DHT22;2530;47.990;7.866;2023-01-10T12:30:12;9.90;1.00
5023;DHT22;2530;47.990;7.866;2023-01-10T12:32:50;9.30;99.90
5023;DHT22;2530;47.990;7.866;2023-01-10T12:35:35;9.10;99.90
5023;DHT22;2530;47.990;7.866;2023-01-10T12:40:57;8.20;99.90
5023;DHT22;2530;47.990;7.866;2023-01-10T12:43:43;8.20;99.90
5023;DHT22;2530;47.990;7.866;2023-01-10T12:46:50;8.60;1.00
5023;DHT22;2530;47.990;7.866;2023-01-10T12:52:43;8.60;99.90
5023;DHT22;2530;47.990;7.866;2023-01-10T12:55:19;8.60;1.00
5023;DHT22;2530;47.990;7.866;2023-01-10T12:57:51;8.70;1.00
5023;DHT22;2530;47.990;7.866;2023-01-10T13:02:58;8.40;1.00
5023;DHT22;2530;47.990;7.866;2023-01-10T13:05:27;8.20;1.00
5023;DHT22;2530;47.990;7.866;2023-01-10T13:08:06;8.30;99.90
5023;DHT22;2530;47.990;7.866;2023-01-10T13:10:39;8.40;99.90
5023;DHT22;2530;47.990;7.866;2023-01-10T13:13:19;8.60;2.50
5023;DHT22;2530;47.990;7.866;2023-01-10T13:15:52;8.70;1.00
5023;DHT22;2530;47.990;7.866;2023-01-10T13:18:24;8.70;1.00
5023;DHT22;2530;47.990;7.866;2023-01-10T13:21:03;8.60;1.00
5023;DHT22;2530;47.990;7.866;2023-01-10T13:23:32;8.50;99.90
5023;DHT22;2530;47.990;7.866;2023-01-10T13:26:09;8.80;99.90
5023;DHT22;2530;47.990;7.866;2023-01-10T13:28:41;8.80;1.00
5023;DHT22;2530;47.990;7.866;2023-01-10T13:31:30;8.70;1.00
5023;DHT22;2530;47.990;7.866;2023-01-10T13:33:59;8.60;5.30
5023;DHT22;2530;47.990;7.866;2023-01-10T13:36:27;8.70;1.00
5023;DHT22;2530;47.990;7.866;2023-01-10T13:39:00;8.60;1.00
5023;DHT22;2530;47.990;7.866;2023-01-10T14:00:50;8.30;18.80
5023;DHT22;2530;47.990;7.866;2023-01-10T14:08:54;8.60;1.00
5023;DHT22;2530;47.990;7.866;2023-01-10T14:11:23;8.70;1.00
5023;DHT22;2530;47.990;7.866;2023-01-10T14:13:53;8.60;1.00
5023;DHT22;2530;47.990;7.866;2023-01-10T14:16:37;8.60;1.00
5023;DHT22;2530;47.990;7.866;2023-01-10T14:19:06;8.80;1.00
5023;DHT22;2530;47.990;7.866;2023-01-10T14:21:46;8.60;1.00
5023;DHT22;2530;47.990;7.866;2023-01-10T14:24:48;8.60;1.00
5023;DHT22;2530;47.990;7.866;2023-01-10T14:27:14;8.70;99.90
5023;DHT22;2530;47.990;7.866;2023-01-10T14:29:46;8.60;1.00
5023;DHT22;2530;47.990;7.866;2023-01-10T14:34:55;8.50;99.90
5023;DHT22;2530;47.990;7.866;2023-01-10T14:37:28;8.40;99.90
5023;DHT22;2530;47.990;7.866;2023-01-10T14:39:57;8.40;1.00
5023;DHT22;2530;47.990;7.866;2023-01-10T14:42:25;8.60;1.00
5023;DHT22;2530;47.990;7.866;2023-01-10T14:45:15;8.50;99.90
5023;DHT22;2530;47.990;7.866;2023-01-10T14:47:41;8.40;99.90
5023;DHT22;2530;47.990;7.866;2023-01-10T14:50:30;8.40;99.90
5023;DHT22;2530;47.990;7.866;2023-01-10T14:52:58;8.50;99.90
5023;DHT22;2530;47.990;7.866;2023-01-10T14:55:24;8.40;99.90
5023;DHT22;2530;47.990;7.866;2023-01-10T14:57:59;8.30;99.90
5023;DHT22;2530;47.990;7.866;2023-01-10T15:00:33;8.30;99.90
5023;DHT22;2530;47.990;7.866;2023-01-10T15:03:01;8.20;1.00
5023;DHT22;2530;47.990;7.866;2023-01-10T15:05:30;8.30;99.90
5023;DHT22;2530;47.990;7.866;2023-01-10T15:10:42;8.10;99.90
5023;DHT22;2530;47.990;7.866;2023-01-10T15:13:13;8.10;99.90
5023;DHT22;2530;47.990;7.866;2023-01-10T15:15:39;8.10;99.90
5023;DHT22;2530;47.990;7.866;2023-01-10T15:18:28;7.90;1.00
5023;DHT22;2530;47.990;7.866;2023-01-10T15:20:55;7.80;99.90
5023;DHT22;2530;47.990;7.866;2023-01-10T15:23:21;7.80;1.00
5023;DHT22;2530;47.990;7.866;2023-01-10T15:25:56;7.80;1.00
5023;DHT22;2530;47.990;7.866;2023-01-10T15:28:23;7.70;1.00
5023;DHT22;2530;47.990;7.866;2023-01-10T15:30:48;7.60;1.00
5023;DHT22;2530;47.990;7.866;2023-01-10T15:33:19;7.60;1.00
5023;DHT22;2530;47.990;7.866;2023-01-10T15:35:45;7.70;1.00
5023;DHT22;2530;47.990;7.866;2023-01-10T15:38:13;7.60;99.90
5023;DHT22;2530;47.990;7.866;2023-01-10T15:40:40;7.50;1.00
5023;DHT22;2530;47.990;7.866;2023-01-10T15:43:26;7.50;99.90
5023;DHT22;2530;47.990;7.866;2023-01-10T15:45:52;7.50;1.00
5023;DHT22;2530;47.990;7.866;2023-01-10T15:48:35;7.40;1.00
5023;DHT22;2530;47.990;7.866;2023-01-10T15:51:23;7.30;1.00
5023;DHT22;2530;47.990;7.866;2023-01-10T15:53:59;7.30;99.10
5023;DHT22;2530;47.990;7.866;2023-01-10T15:56:33;7.20;99.90
5023;DHT22;2530;47.990;7.866;2023-01-10T15:59:00;7.10;1.00
5023;DHT22;2530;47.990;7.866;2023-01-10T16:01:27;7.20;1.00
5023;DHT22;2530;47.990;7.866;2023-01-10T16:03:55;7.10;1.00
5023;DHT22;2530;47.990;7.866;2023-01-10T16:08:58;7.20;99.90
5023;DHT22;2530;47.990;7.866;2023-01-10T16:11:37;7.30;99.90
5023;DHT22;2530;47.990;7.866;2023-01-10T16:14:22;7.20;1.00
5023;DHT22;2530;47.990;7.866;2023-01-10T16:16:48;7.20;1.00
5023;DHT22;2530;47.990;7.866;2023-01-10T16:19:14;7.20;99.90
5023;DHT22;2530;47.990;7.866;2023-01-10T16:21:42;7.20;58.50
5023;DHT22;2530;47.990;7.866;2023-01-10T16:24:21;7.20;99.90
5023;DHT22;2530;47.990;7.866;2023-01-10T16:26:48;7.10;99.90
5023;DHT22;2530;47.990;7.866;2023-01-10T16:29:14;7.00;99.90
5023;DHT22;2530;47.990;7.866;2023-01-10T16:31:40;6.90;1.00
5023;DHT22;2530;47.990;7.866;2023-01-10T16:34:06;6.80;59.10
5023;DHT22;2530;47.990;7.866;2023-01-10T16:36:32;6.70;99.90
5023;DHT22;2530;47.990;7.866;2023-01-10T16:38:57;6.60;99.90
5023;DHT22;2530;47.990;7.866;2023-01-10T16:41:23;6.60;1.00
5023;DHT22;2530;47.990;7.866;2023-01-10T16:44:07;6.60;1.00
5023;DHT22;2530;47.990;7.866;2023-01-10T16:46:39;6.40;1.00
5023;DHT22;2530;47.990;7.866;2023-01-10T16:49:10;6.40;1.00
5023;DHT22;2530;47.990;7.866;2023-01-10T16:51:38;6.30;1.00
5023;DHT22;2530;47.990;7.866;2023-01-10T16:54:04;6.20;1.00
5023;DHT22;2530;47.990;7.866;2023-01-10T16:56:30;6.20;1.00
5023;DHT22;2530;47.990;7.866;2023-01-10T16:58:56;6.10;1.00
5023;DHT22;2530;47.990;7.866;2023-01-10T17:01:35;6.20;1.00
5023;DHT22;2530;47.990;7.866;2023-01-10T17:04:04;6.10;1.00
5023;DHT22;2530;47.990;7.866;2023-01-10T17:06:30;6.20;1.00
5023;DHT22;2530;47.990;7.866;2023-01-10T17:08:55;6.20;1.00
5023;DHT22;2530;47.990;7.866;2023-01-10T17:11:29;6.20;1.00
5023;DHT22;2530;47.990;7.866;2023-01-10T17:13:57;6.20;1.00
5023;DHT22;2530;47.990;7.866;2023-01-10T17:16:22;6.20;1.00
5023;DHT22;2530;47.990;7.866;2023-01-10T17:18:48;6.10;1.00
5023;DHT22;2530;47.990;7.866;2023-01-10T17:21:16;6.20;1.00
5023;DHT22;2530;47.990;7.866;2023-01-10T17:23:42;6.20;1.00
5023;DHT22;2530;47.990;7.866;2023-01-10T17:26:10;6.20;1.00
5023;DHT22;2530;47.990;7.866;2023-01-10T17:28:36;6.20;1.00
5023;DHT22;2530;47.990;7.866;2023-01-10T17:31:01;6.20;1.00
5023;DHT22;2530;47.990;7.866;2023-01-10T17:33:28;6.10;1.00
5023;DHT22;2530;47.990;7.866;2023-01-10T17:35:55;6.00;1.00
5023;DHT22;2530;47.990;7.866;2023-01-10T17:38:21;6.00;1.00
5023;DHT22;2530;47.990;7.866;2023-01-10T17:40:48;6.20;1.00
5023;DHT22;2530;47.990;7.866;2023-01-10T17:43:14;6.30;1.00
5023;DHT22;2530;47.990;7.866;2023-01-10T17:45:42;6.10;1.00
5023;DHT22;2530;47.990;7.866;2023-01-10T17:48:09;6.10;1.00
5023;DHT22;2530;47.990;7.866;2023-01-10T17:50:37;6.10;1.00
5023;DHT22;2530;47.990;7.866;2023-01-10T17:53:03;6.20;1.00
5023;DHT22;2530;47.990;7.866;2023-01-10T17:55:28;6.20;1.00
5023;DHT22;2530;47.990;7.866;2023-01-10T17:57:54;6.20;1.00
5023;DHT22;2530;47.990;7.866;2023-01-10T18:00:19;6.20;1.00
5023;DHT22;2530;47.990;7.866;2023-01-10T18:02:45;6.20;1.00
5023;DHT22;2530;47.990;7.866;2023-01-10T18:05:10;6.20;1.00
5023;DHT22;2530;47.990;7.866;2023-01-10T18:07:36;6.30;1.00
5023;DHT22;2530;47.990;7.866;2023-01-10T18:10:02;6.20;1.00
5023;DHT22;2530;47.990;7.866;2023-01-10T18:12:27;6.30;1.00
5023;DHT22;2530;47.990;7.866;2023-01-10T18:14:53;6.30;1.00
5023;DHT22;2530;47.990;7.866;2023-01-10T18:17:19;6.30;1.00
5023;DHT22;2530;47.990;7.866;2023-01-10T18:19:45;6.20;1.00
5023;DHT22;2530;47.990;7.866;2023-01-10T18:22:10;6.20;1.00
5023;DHT22;2530;47.990;7.866;2023-01-10T18:24:55;6.20;1.00
5023;DHT22;2530;47.990;7.866;2023-01-10T18:27:23;6.30;1.00
5023;DHT22;2530;47.990;7.866;2023-01-10T18:29:49;6.20;1.00
5023;DHT22;2530;47.990;7.866;2023-01-10T18:32:15;6.20;1.00
5023;DHT22;2530;47.990;7.866;2023-01-10T18:34:41;6.20;1.00